createdAt,value
2023-03-29T00:02:56.527Z,101189.13
2023-03-29T00:06:03.703Z,101198.91
2023-03-29T00:09:06.947Z,101214.47
2023-03-29T00:12:11.162Z,101214.00
2023-03-29T00:15:13.731Z,101199.81
2023-03-29T00:18:17.149Z,101215.28
2023-03-29T00:21:19.755Z,101200.41
2023-03-29T00:24:23.940Z,101205.97
2023-03-29T00:27:26.343Z,101189.59
2023-03-29T00:30:28.932Z,101162.63
2023-03-29T00:33:31.543Z,101181.94
2023-03-29T00:36:34.068Z,101199.38
2023-03-29T00:39:37.081Z,101194.25
2023-03-29T00:42:43.605Z,101172.06
2023-03-29T00:45:47.491Z,101204.00
2023-03-29T00:48:54.968Z,101207.75
2023-03-29T00:51:57.534Z,101208.31
2023-03-29T00:55:06.037Z,101203.34
2023-03-29T00:58:13.044Z,101190.28
2023-03-29T01:01:20.568Z,101203.53
2023-03-29T01:04:46.244Z,101169.25
2023-03-29T01:08:18.496Z,101189.72
2023-03-29T01:11:27.415Z,101182.38
2023-03-29T01:14:35.472Z,101176.34
2023-03-29T01:17:40.549Z,101177.63
2023-03-29T01:21:14.848Z,101168.94
2023-03-29T01:24:26.490Z,101162.63
2023-03-29T01:27:56.014Z,101168.44
2023-03-29T01:31:27.802Z,101158.47
2023-03-29T01:34:38.697Z,101152.88
2023-03-29T01:37:48.241Z,101152.06
2023-03-29T01:40:50.793Z,101148.34
2023-03-29T01:44:01.886Z,101146.94
2023-03-29T01:47:29.073Z,101162.63
2023-03-29T01:50:41.350Z,101167.75
2023-03-29T01:53:59.219Z,101156.34
2023-03-29T01:57:04.896Z,101165.25
2023-03-29T02:00:11.350Z,101165.63
2023-03-29T02:03:19.818Z,101171.66
2023-03-29T02:06:27.067Z,101138.81
2023-03-29T02:09:30.451Z,101177.28
2023-03-29T02:12:33.841Z,101178.06
2023-03-29T02:15:38.620Z,101174.41
2023-03-29T02:18:44.101Z,101183.41
2023-03-29T02:21:55.769Z,101173.81
2023-03-29T02:25:01.820Z,101160.53
2023-03-29T02:28:06.888Z,101162.06
2023-03-29T02:31:19.063Z,101179.81
2023-03-29T02:34:31.787Z,101168.75
2023-03-29T02:37:41.021Z,101172.59
2023-03-29T02:40:45.212Z,101186.44
2023-03-29T02:43:48.511Z,101183.94
2023-03-29T02:46:56.905Z,101182.75
2023-03-29T02:50:00.299Z,101191.94
2023-03-29T02:53:09.547Z,101197.19
2023-03-29T02:56:13.887Z,101178.31
2023-03-29T03:02:22.012Z,101197.88
2023-03-29T03:05:29.686Z,101214.19
2023-03-29T03:08:32.508Z,101202.50
2023-03-29T03:11:34.998Z,101204.44
2023-03-29T03:14:38.282Z,101202.31
2023-03-29T03:17:41.127Z,101205.16
2023-03-29T03:20:46.611Z,101180.44
2023-03-29T03:23:49.626Z,101204.88
2023-03-29T03:26:52.148Z,101198.56
2023-03-29T03:29:55.102Z,101207.63
2023-03-29T03:33:20.954Z,101199.69
2023-03-29T03:36:42.042Z,101207.81
2023-03-29T03:39:44.493Z,101196.66
2023-03-29T03:42:46.953Z,101214.78
2023-03-29T03:45:49.649Z,101195.13
2023-03-29T03:48:53.529Z,101201.94
2023-03-29T03:52:02.494Z,101214.97
2023-03-29T03:55:05.455Z,101204.81
2023-03-29T03:58:19.980Z,101216.84
2023-03-29T04:01:22.736Z,101212.03
2023-03-29T04:04:35.274Z,101203.38
2023-03-29T04:07:47.900Z,101202.22
2023-03-29T04:11:08.236Z,101201.31
2023-03-29T04:14:13.513Z,101188.78
2023-03-29T04:17:34.824Z,101190.34
2023-03-29T04:20:57.590Z,101203.81
2023-03-29T04:24:01.991Z,101214.28
2023-03-29T04:27:08.136Z,101188.69
2023-03-29T04:30:11.877Z,101210.19
2023-03-29T04:33:37.458Z,101208.38
2023-03-29T04:36:40.059Z,101206.13
2023-03-29T04:39:50.091Z,101204.69
2023-03-29T04:42:54.419Z,101208.31
2023-03-29T04:45:57.908Z,101203.34
2023-03-29T04:49:19.201Z,101206.78
2023-03-29T04:52:26.581Z,101209.97
2023-03-29T04:55:29.696Z,101193.94
2023-03-29T04:58:38.458Z,101207.72
2023-03-29T05:01:42.142Z,101200.06
2023-03-29T05:04:44.899Z,101203.31
2023-03-29T05:07:50.896Z,101226.59
2023-03-29T05:10:57.916Z,101209.91
2023-03-29T05:14:03.440Z,101216.84
2023-03-29T05:17:09.043Z,101213.63
2023-03-29T05:20:13.190Z,101215.63
2023-03-29T05:23:19.155Z,101217.63
2023-03-29T05:26:40.126Z,101209.81
2023-03-29T05:29:44.838Z,101214.81
2023-03-29T05:33:16.485Z,101230.28
2023-03-29T05:36:21.179Z,101233.88
2023-03-29T05:39:25.986Z,101229.81
2023-03-29T05:42:29.063Z,101211.41
2023-03-29T05:45:40.121Z,101219.41
2023-03-29T05:48:43.527Z,101222.75
2023-03-29T05:51:47.213Z,101231.94
2023-03-29T05:54:50.847Z,101220.59
2023-03-29T05:57:56.880Z,101242.00
2023-03-29T06:01:05.327Z,101231.44
2023-03-29T06:04:43.496Z,101236.88
2023-03-29T06:07:58.956Z,101227.97
2023-03-29T06:11:24.303Z,101241.69
2023-03-29T06:14:41.930Z,101225.16
2023-03-29T06:18:07.677Z,101245.78
2023-03-29T06:21:13.568Z,101250.91
2023-03-29T06:24:16.568Z,101225.88
2023-03-29T06:27:25.489Z,101255.66
2023-03-29T06:30:29.115Z,101254.25
2023-03-29T06:33:34.197Z,101241.06
2023-03-29T06:36:39.877Z,101255.69
2023-03-29T06:39:42.595Z,101257.63
2023-03-29T06:43:14.513Z,101250.81
2023-03-29T06:46:29.496Z,101261.31
2023-03-29T06:49:36.298Z,101268.69
2023-03-29T06:52:48.627Z,101263.00
2023-03-29T06:55:52.594Z,101250.88
2023-03-29T06:59:21.729Z,101254.22
2023-03-29T07:02:34.969Z,101265.50
2023-03-29T07:05:44.960Z,101277.66
2023-03-29T07:08:52.453Z,101253.56
2023-03-29T07:12:13.576Z,101261.13
2023-03-29T07:15:16.680Z,101269.53
2023-03-29T07:18:46.891Z,101268.66
2023-03-29T07:22:00.436Z,101275.41
2023-03-29T07:25:27.658Z,101275.72
2023-03-29T07:28:30.117Z,101282.19
2023-03-29T07:31:35.738Z,101278.13
2023-03-29T07:35:08.979Z,101271.50
2023-03-29T07:38:11.486Z,101279.69
2023-03-29T07:41:20.269Z,101277.09
2023-03-29T07:44:27.090Z,101293.38
2023-03-29T07:47:30.628Z,101287.88
2023-03-29T07:50:34.710Z,101286.38
2023-03-29T07:53:39.967Z,101280.94
2023-03-29T07:56:54.568Z,101298.72
2023-03-29T08:00:17.330Z,101286.84
2023-03-29T08:03:30.249Z,101291.16
2023-03-29T08:06:34.125Z,101284.13
2023-03-29T08:09:37.595Z,101298.97
2023-03-29T08:12:42.065Z,101279.22
2023-03-29T08:15:47.386Z,101273.09
2023-03-29T08:19:02.069Z,101287.91
2023-03-29T08:22:19.150Z,101288.97
2023-03-29T08:25:42.390Z,101274.94
2023-03-29T08:28:45.920Z,101263.78
2023-03-29T08:31:49.316Z,101288.72
2023-03-29T08:34:51.969Z,101262.47
2023-03-29T08:37:59.358Z,101284.34
2023-03-29T08:41:02.240Z,101277.25
2023-03-29T08:44:16.421Z,101278.06
2023-03-29T08:47:51.934Z,101269.75
2023-03-29T08:51:00.163Z,101265.28
2023-03-29T08:54:16.211Z,101252.22
2023-03-29T08:57:50.652Z,101249.50
2023-03-29T09:01:09.494Z,101243.31
2023-03-29T09:04:33.467Z,101251.75
2023-03-29T09:07:57.504Z,101245.97
2023-03-29T09:11:15.290Z,101230.47
2023-03-29T09:14:33.888Z,101221.41
2023-03-29T09:17:46.595Z,101235.28
2023-03-29T09:21:01.712Z,101239.66
2023-03-29T09:24:32.602Z,101244.72
2023-03-29T09:28:14.447Z,101234.66
2023-03-29T09:31:32.666Z,101222.19
2023-03-29T09:34:48.411Z,101220.06
2023-03-29T09:37:55.540Z,101226.03
2023-03-29T09:41:06.729Z,101233.97
2023-03-29T09:47:28.308Z,101213.19
2023-03-29T09:50:42.318Z,101215.78
2023-03-29T09:53:47.263Z,101205.31
2023-03-29T09:57:13.892Z,101212.88
2023-03-29T10:00:17.897Z,101206.16
2023-03-29T10:03:32.209Z,101209.50
2023-03-29T10:06:50.341Z,101195.09
2023-03-29T10:09:56.000Z,101181.72
2023-03-29T10:13:06.981Z,101182.81
2023-03-29T10:16:21.749Z,101179.97
2023-03-29T10:19:34.957Z,101177.38
2023-03-29T10:22:40.512Z,101164.19
2023-03-29T10:25:43.268Z,101170.09
2023-03-29T10:28:46.121Z,101180.78
2023-03-29T10:31:49.785Z,101169.84
2023-03-29T10:34:53.806Z,101177.34
2023-03-29T10:38:01.565Z,101173.78
2023-03-29T10:41:11.693Z,101170.38
2023-03-29T10:44:33.288Z,101168.59
2023-03-29T10:47:36.380Z,101150.38
2023-03-29T10:50:39.290Z,101162.09
2023-03-29T10:53:42.443Z,101155.78
2023-03-29T10:56:57.616Z,101156.09
2023-03-29T11:00:09.619Z,101159.84
2023-03-29T11:03:16.648Z,101148.06
2023-03-29T11:06:34.800Z,101141.59
2023-03-29T11:09:51.342Z,101137.22
2023-03-29T11:13:10.764Z,101139.59
2023-03-29T11:16:30.037Z,101136.63
2023-03-29T11:20:02.378Z,101134.84
2023-03-29T11:23:28.094Z,101126.16
2023-03-29T11:26:30.686Z,101124.09
2023-03-29T11:29:49.014Z,101120.63
2023-03-29T11:32:56.349Z,101121.28
2023-03-29T11:36:01.786Z,101116.84
2023-03-29T11:39:04.937Z,101115.16
2023-03-29T11:42:14.561Z,101088.16
2023-03-29T11:45:41.909Z,101100.75
2023-03-29T11:48:53.047Z,101090.28
2023-03-29T11:52:03.104Z,101080.44
2023-03-29T11:55:10.098Z,101073.44
2023-03-29T11:58:20.335Z,101076.97
2023-03-29T12:01:32.568Z,101067.09
2023-03-29T12:04:41.953Z,101076.72
2023-03-29T12:07:52.120Z,101080.84
2023-03-29T12:11:09.900Z,101067.94
2023-03-29T12:14:26.062Z,101060.47
2023-03-29T12:17:39.707Z,101055.75
2023-03-29T12:20:42.488Z,101056.16
2023-03-29T12:23:49.075Z,101055.53
2023-03-29T12:27:00.697Z,101055.28
2023-03-29T12:30:15.122Z,101065.16
2023-03-29T12:33:56.068Z,101040.03
2023-03-29T12:37:56.626Z,101039.91
2023-03-29T12:41:20.128Z,101041.03
2023-03-29T12:44:59.794Z,101015.41
2023-03-29T12:48:08.600Z,101034.88
2023-03-29T12:51:17.299Z,101044.34
2023-03-29T12:54:22.724Z,101040.16
2023-03-29T12:57:40.840Z,101030.91
2023-03-29T13:00:45.029Z,101030.22
2023-03-29T13:03:56.130Z,101038.38
2023-03-29T13:07:04.272Z,101030.41
2023-03-29T13:10:28.658Z,101028.25
2023-03-29T13:13:38.344Z,101008.69
2023-03-29T13:16:41.854Z,101028.41
2023-03-29T13:20:21.984Z,101018.91
2023-03-29T13:23:58.707Z,101015.16
2023-03-29T13:27:07.261Z,101020.91
2023-03-29T13:30:43.809Z,101015.56
2023-03-29T13:34:13.816Z,100997.94
2023-03-29T13:37:25.125Z,101004.66
2023-03-29T13:40:54.331Z,101002.28
2023-03-29T13:43:58.150Z,100996.34
2023-03-29T13:47:37.093Z,100989.19
2023-03-29T13:50:52.046Z,100987.78
2023-03-29T13:54:00.754Z,100987.44
2023-03-29T13:57:15.820Z,100976.47
2023-03-29T14:00:23.826Z,100974.69
2023-03-29T14:03:30.057Z,100975.91
2023-03-29T14:06:36.760Z,100986.53
2023-03-29T14:09:44.672Z,100980.91
2023-03-29T14:12:47.930Z,100975.72
2023-03-29T14:16:07.448Z,100974.00
2023-03-29T14:19:38.046Z,100964.09
2023-03-29T14:22:42.994Z,100953.25
2023-03-29T14:25:45.874Z,100948.91
2023-03-29T14:28:49.638Z,100959.66
2023-03-29T14:31:52.381Z,100958.16
2023-03-29T14:34:55.180Z,100926.72
2023-03-29T14:37:59.277Z,100941.38
2023-03-29T14:41:03.107Z,100939.97
2023-03-29T14:44:06.882Z,100939.94
2023-03-29T14:47:34.219Z,100935.31
2023-03-29T14:50:37.045Z,100930.13
2023-03-29T14:53:40.936Z,100927.91
2023-03-29T14:56:44.229Z,100924.50
2023-03-29T14:59:54.498Z,100928.53
2023-03-29T15:03:02.565Z,100922.63
2023-03-29T15:06:06.341Z,100925.41
2023-03-29T15:09:17.847Z,100932.72
2023-03-29T15:12:20.829Z,100919.81
2023-03-29T15:15:25.693Z,100917.16
2023-03-29T15:18:41.498Z,100912.94
2023-03-29T15:21:45.311Z,100934.28
2023-03-29T15:24:49.068Z,100927.84
2023-03-29T15:27:59.575Z,100918.06
2023-03-29T15:31:15.253Z,100911.53
2023-03-29T15:34:29.682Z,100927.41
2023-03-29T15:37:32.434Z,100916.53
2023-03-29T15:40:35.402Z,100902.53
2023-03-29T15:43:38.052Z,100916.34
2023-03-29T15:46:40.486Z,100900.59
2023-03-29T15:49:43.254Z,100897.69
2023-03-29T15:52:45.853Z,100899.09
2023-03-29T15:55:52.282Z,100901.22
2023-03-29T15:58:54.753Z,100910.97
2023-03-29T16:01:58.801Z,100913.34
2023-03-29T16:05:01.751Z,100909.91
2023-03-29T16:08:04.351Z,100890.25
2023-03-29T16:11:06.934Z,100893.47
2023-03-29T16:14:25.222Z,100902.38
2023-03-29T16:17:27.693Z,100897.91
2023-03-29T16:20:30.455Z,100879.72
2023-03-29T16:23:33.383Z,100893.50
2023-03-29T16:26:35.818Z,100889.66
2023-03-29T16:29:38.231Z,100899.06
2023-03-29T16:32:41.503Z,100879.19
2023-03-29T16:35:45.084Z,100880.34
2023-03-29T16:38:47.592Z,100852.00
2023-03-29T16:41:50.315Z,100887.53
2023-03-29T16:44:54.516Z,100882.88
2023-03-29T16:47:57.536Z,100890.66
2023-03-29T16:51:00.110Z,100877.44
2023-03-29T16:54:03.065Z,100897.69
2023-03-29T16:57:07.219Z,100891.16
2023-03-29T17:00:11.324Z,100902.72
2023-03-29T17:03:13.859Z,100896.84
2023-03-29T17:06:16.328Z,100896.56
2023-03-29T17:09:19.238Z,100886.28
2023-03-29T17:12:23.393Z,100882.72
2023-03-29T17:15:25.920Z,100891.28
2023-03-29T17:18:28.455Z,100856.59
2023-03-29T17:21:31.732Z,100890.47
2023-03-29T17:24:34.494Z,100878.50
2023-03-29T17:27:37.989Z,100897.59
2023-03-29T17:30:40.792Z,100879.03
2023-03-29T17:33:43.320Z,100888.59
2023-03-29T17:36:46.228Z,100902.88
2023-03-29T17:39:48.738Z,100896.56
2023-03-29T17:42:52.622Z,100913.81
2023-03-29T17:45:55.620Z,100900.50
2023-03-29T17:49:00.338Z,100910.88
2023-03-29T17:52:03.490Z,100909.63
2023-03-29T17:55:13.356Z,100905.22
2023-03-29T17:58:16.646Z,100910.97
2023-03-29T18:01:19.978Z,100903.47
2023-03-29T18:04:22.928Z,100921.88
2023-03-29T18:07:25.442Z,100911.97
2023-03-29T18:10:28.179Z,100909.88
2023-03-29T18:13:30.736Z,100911.94
2023-03-29T18:16:33.403Z,100910.97
2023-03-29T18:19:36.307Z,100911.56
2023-03-29T18:22:41.472Z,100937.31
2023-03-29T18:25:44.043Z,100934.44
2023-03-29T18:28:47.303Z,100925.84
2023-03-29T18:31:50.775Z,100944.31
2023-03-29T18:34:53.558Z,100948.97
2023-03-29T18:37:56.227Z,100946.22
2023-03-29T18:40:59.004Z,100931.44
2023-03-29T18:44:01.990Z,100940.03
2023-03-29T18:47:04.732Z,100947.63
2023-03-29T18:50:09.348Z,100933.75
2023-03-29T18:53:13.368Z,100933.81
2023-03-29T18:56:16.119Z,100945.31
2023-03-29T18:59:18.859Z,100938.19
2023-03-29T19:02:21.830Z,100928.94
2023-03-29T19:05:24.686Z,100944.50
2023-03-29T19:08:28.303Z,100932.69
2023-03-29T19:11:31.564Z,100946.75
2023-03-29T19:14:34.407Z,100940.06
2023-03-29T19:17:37.005Z,100923.84
2023-03-29T19:20:39.782Z,100947.50
2023-03-29T19:23:42.510Z,100928.91
2023-03-29T19:26:47.909Z,100931.59
2023-03-29T19:29:50.873Z,100964.44
2023-03-29T19:32:53.758Z,100960.72
2023-03-29T19:35:56.721Z,100943.47
2023-03-29T19:38:59.578Z,100945.78
2023-03-29T19:42:02.672Z,100942.44
2023-03-29T19:45:07.847Z,100938.44
2023-03-29T19:48:21.139Z,100951.47
2023-03-29T19:51:29.638Z,100958.28
2023-03-29T19:54:32.303Z,100956.16
2023-03-29T19:57:35.006Z,100951.00
2023-03-29T20:00:39.095Z,100941.50
2023-03-29T20:03:43.499Z,100946.03
2023-03-29T20:06:46.832Z,100944.38
2023-03-29T20:09:49.273Z,100951.97
2023-03-29T20:12:52.227Z,100945.97
2023-03-29T20:15:54.770Z,100928.94
2023-03-29T20:18:57.445Z,100926.13
2023-03-29T20:22:00.695Z,100937.91
2023-03-29T20:25:03.854Z,100938.38
2023-03-29T20:28:06.643Z,100918.19
2023-03-29T20:31:11.018Z,100941.16
2023-03-29T20:34:13.627Z,100927.28
2023-03-29T20:37:16.065Z,100929.84
2023-03-29T20:40:18.837Z,100937.09
2023-03-29T20:43:21.853Z,100931.16
2023-03-29T20:46:33.505Z,100925.75
2023-03-29T20:49:39.845Z,100929.91
2023-03-29T20:52:47.711Z,100922.31
2023-03-29T20:55:50.166Z,100914.03
2023-03-29T20:58:55.551Z,100914.16
2023-03-29T21:01:58.357Z,100910.09
2023-03-29T21:05:02.546Z,100907.44
2023-03-29T21:08:05.074Z,100906.44
2023-03-29T21:11:08.200Z,100899.88
2023-03-29T21:14:11.139Z,100912.69
2023-03-29T21:17:14.163Z,100911.69
2023-03-29T21:20:16.630Z,100909.03
2023-03-29T21:23:19.075Z,100914.34
2023-03-29T21:26:22.797Z,100920.16
2023-03-29T21:29:26.472Z,100905.56
2023-03-29T21:32:29.035Z,100909.31
2023-03-29T21:35:33.405Z,100897.88
2023-03-29T21:38:36.503Z,100905.16
2023-03-29T21:41:39.037Z,100905.72
2023-03-29T21:44:41.472Z,100901.22
2023-03-29T21:47:43.936Z,100919.56
2023-03-29T21:50:50.456Z,100891.50
2023-03-29T21:53:52.859Z,100906.50
2023-03-29T21:56:55.502Z,100918.84
2023-03-29T21:59:58.033Z,100907.56
2023-03-29T22:03:00.728Z,100910.72
2023-03-29T22:06:07.998Z,100885.44
2023-03-29T22:09:11.290Z,100908.06
2023-03-29T22:12:13.789Z,100914.19
2023-03-29T22:15:17.597Z,100911.19
2023-03-29T22:18:20.831Z,100899.53
2023-03-29T22:21:26.834Z,100917.34
2023-03-29T22:24:29.344Z,100896.59
2023-03-29T22:27:32.094Z,100910.31
2023-03-29T22:30:34.524Z,100901.28
2023-03-29T22:33:38.395Z,100894.97
2023-03-29T22:36:40.861Z,100903.84
2023-03-29T22:39:43.557Z,100907.44
2023-03-29T22:42:46.126Z,100880.63
2023-03-29T22:45:48.976Z,100910.94
2023-03-29T22:48:52.416Z,100908.69
2023-03-29T22:51:55.627Z,100915.66
2023-03-29T22:54:58.026Z,100918.88
2023-03-29T22:58:00.649Z,100915.50
2023-03-29T23:01:04.113Z,100907.78
2023-03-29T23:04:07.291Z,100901.28
2023-03-29T23:07:09.702Z,100904.66
2023-03-29T23:10:12.875Z,100914.31
2023-03-29T23:13:20.533Z,100901.28
2023-03-29T23:16:23.200Z,100907.59
2023-03-29T23:19:25.973Z,100914.22
2023-03-29T23:22:28.806Z,100918.06
2023-03-29T23:25:31.458Z,100906.47
2023-03-29T23:28:34.769Z,100918.41
2023-03-29T23:31:37.817Z,100915.66
2023-03-29T23:34:40.574Z,100919.53
2023-03-29T23:37:43.320Z,100914.22
2023-03-29T23:40:53.125Z,100914.69
2023-03-29T23:43:57.660Z,100899.66
2023-03-29T23:47:01.142Z,100903.03
2023-03-29T23:50:04.679Z,100914.03
2023-03-29T23:53:07.340Z,100899.50
2023-03-29T23:56:10.237Z,100895.00
2023-03-29T23:59:13.104Z,100889.84
